createdAt,value
2017-06-28T00:00:50.642Z,19.87
2017-06-28T00:03:19.722Z,20.17
2017-06-28T00:05:48.820Z,20.45
2017-06-28T00:08:17.783Z,20.33
2017-06-28T00:10:46.808Z,20.12
2017-06-28T00:13:15.778Z,22.35
2017-06-28T00:15:44.787Z,22.08
2017-06-28T00:18:13.834Z,20.77
2017-06-28T00:20:42.796Z,20.50
2017-06-28T00:23:11.821Z,21.48
2017-06-28T00:25:40.825Z,20.35
2017-06-28T00:28:09.849Z,22.02
2017-06-28T00:30:38.861Z,20.75
2017-06-28T00:33:07.838Z,22.92
2017-06-28T00:35:36.836Z,20.90
2017-06-28T00:38:05.814Z,21.40
2017-06-28T00:40:34.791Z,21.98
2017-06-28T00:43:03.815Z,22.10
2017-06-28T00:45:33.178Z,22.35
2017-06-28T00:48:02.159Z,21.73
2017-06-28T00:50:31.138Z,21.00
2017-06-28T00:53:00.160Z,22.67
2017-06-28T00:55:29.517Z,22.58
2017-06-28T00:57:58.823Z,21.62
2017-06-28T01:00:28.017Z,22.08
2017-06-28T01:02:57.082Z,23.40
2017-06-28T01:05:26.174Z,22.52
2017-06-28T01:07:55.126Z,21.20
2017-06-28T01:10:24.095Z,22.20
2017-06-28T01:12:53.103Z,24.00
2017-06-28T01:15:22.045Z,24.87
2017-06-28T01:17:51.017Z,23.92
2017-06-28T01:20:19.981Z,24.95
2017-06-28T01:22:48.976Z,25.60
2017-06-28T01:25:18.012Z,24.98
2017-06-28T01:27:46.969Z,24.63
2017-06-28T01:30:15.926Z,27.50
2017-06-28T01:32:44.961Z,28.48
2017-06-28T01:35:14.984Z,26.73
2017-06-28T01:37:44.021Z,25.90
2017-06-28T01:40:12.994Z,24.90
2017-06-28T01:42:42.046Z,25.95
2017-06-28T01:45:11.041Z,27.02
2017-06-28T01:47:40.029Z,26.23
2017-06-28T01:52:47.231Z,28.98
2017-06-28T01:55:17.346Z,29.52
2017-06-28T01:57:46.313Z,28.40
2017-06-28T02:00:16.043Z,26.90
2017-06-28T02:02:45.052Z,28.15
2017-06-28T02:05:14.924Z,28.65
2017-06-28T02:07:43.954Z,29.10
2017-06-28T02:10:12.908Z,27.67
2017-06-28T02:12:42.120Z,29.50
2017-06-28T02:15:11.439Z,31.12
2017-06-28T02:17:40.459Z,30.00
2017-06-28T02:20:09.438Z,33.20
2017-06-28T02:22:38.396Z,33.35
2017-06-28T02:25:07.349Z,33.72
2017-06-28T02:27:36.336Z,34.35
2017-06-28T02:30:05.321Z,33.25
2017-06-28T02:32:34.409Z,34.35
2017-06-28T02:35:03.593Z,35.20
2017-06-28T02:37:32.601Z,33.83
2017-06-28T02:40:01.604Z,34.70
2017-06-28T02:42:30.605Z,38.72
2017-06-28T02:44:59.560Z,37.72
2017-06-28T02:47:28.538Z,37.30
2017-06-28T02:49:57.487Z,36.45
2017-06-28T02:52:26.499Z,38.15
2017-06-28T02:54:55.523Z,36.28
2017-06-28T02:57:24.726Z,38.08
2017-06-28T02:59:53.795Z,37.30
2017-06-28T03:02:22.791Z,36.17
2017-06-28T03:04:51.806Z,38.15
2017-06-28T03:10:04.050Z,36.42
2017-06-28T03:12:33.333Z,39.45
2017-06-28T03:15:02.297Z,36.10
2017-06-28T03:17:31.281Z,36.30
2017-06-28T03:20:00.509Z,37.65
2017-06-28T03:22:29.453Z,37.22
2017-06-28T03:24:58.454Z,32.15
2017-06-28T03:27:27.451Z,35.58
2017-06-28T03:29:56.486Z,36.75
2017-06-28T03:32:25.518Z,35.78
2017-06-28T03:34:54.502Z,33.60
2017-06-28T03:37:23.724Z,33.60
2017-06-28T03:39:52.709Z,34.30
2017-06-28T03:42:21.713Z,31.10
2017-06-28T03:46:10.051Z,35.92
2017-06-28T03:48:39.013Z,33.58
2017-06-28T03:51:08.002Z,33.08
2017-06-28T03:53:36.965Z,32.13
2017-06-28T03:56:06.109Z,33.47
2017-06-28T03:58:35.207Z,31.02
2017-06-28T04:01:04.236Z,31.58
2017-06-28T04:03:33.226Z,32.83
2017-06-28T04:06:02.313Z,32.58
2017-06-28T04:08:31.419Z,33.83
2017-06-28T04:11:00.519Z,35.35
2017-06-28T04:13:30.324Z,31.42
2017-06-28T04:15:59.426Z,31.27
2017-06-28T04:18:28.409Z,32.30
2017-06-28T04:20:57.461Z,32.22
2017-06-28T04:23:26.545Z,31.15
2017-06-28T04:25:55.592Z,34.17
2017-06-28T04:28:24.660Z,30.88
2017-06-28T04:30:53.630Z,30.67
2017-06-28T04:33:22.847Z,30.08
2017-06-28T04:35:51.886Z,30.05
2017-06-28T04:38:21.076Z,29.37
2017-06-28T04:40:50.182Z,28.05
2017-06-28T04:43:19.253Z,29.17
2017-06-28T04:45:48.278Z,28.87
2017-06-28T04:48:17.337Z,29.87
2017-06-28T04:50:46.700Z,27.73
2017-06-28T04:53:16.167Z,28.62
2017-06-28T04:55:45.547Z,26.77
2017-06-28T04:58:14.548Z,25.52
2017-06-28T05:00:43.666Z,26.37
2017-06-28T05:03:12.841Z,25.30
2017-06-28T05:05:41.986Z,23.90
2017-06-28T05:08:11.014Z,25.55
2017-06-28T05:10:45.466Z,25.37
2017-06-28T05:13:14.665Z,21.80
2017-06-28T05:15:43.726Z,24.42
2017-06-28T05:18:12.812Z,23.90
2017-06-28T05:20:42.033Z,24.52
2017-06-28T05:23:11.106Z,24.65
2017-06-28T05:25:41.238Z,24.05
2017-06-28T05:28:11.136Z,22.17
2017-06-28T05:30:40.314Z,22.60
2017-06-28T05:33:09.731Z,23.62
2017-06-28T05:35:39.089Z,22.95
2017-06-28T05:38:08.325Z,20.50
2017-06-28T05:40:37.682Z,20.45
2017-06-28T05:43:06.729Z,18.48
2017-06-28T05:45:35.825Z,19.33
2017-06-28T05:48:05.025Z,18.93
2017-06-28T05:50:34.060Z,19.25
2017-06-28T05:53:03.146Z,18.80
2017-06-28T05:55:32.178Z,20.10
2017-06-28T05:58:01.358Z,20.70
2017-06-28T06:00:30.541Z,20.60
2017-06-28T06:02:59.572Z,21.20
2017-06-28T06:05:28.638Z,19.60
2017-06-28T06:07:57.652Z,19.92
2017-06-28T06:10:26.658Z,20.10
2017-06-28T06:12:55.652Z,20.95
2017-06-28T06:15:24.665Z,19.17
2017-06-28T06:17:53.741Z,17.52
2017-06-28T06:20:22.764Z,16.52
2017-06-28T06:22:51.745Z,17.83
2017-06-28T06:25:20.790Z,18.07
2017-06-28T06:27:49.753Z,17.35
2017-06-28T06:30:18.827Z,17.10
2017-06-28T06:32:47.940Z,18.03
2017-06-28T06:35:18.345Z,17.20
2017-06-28T06:37:47.815Z,17.90
2017-06-28T06:40:19.019Z,16.10
2017-06-28T06:42:47.992Z,17.30
2017-06-28T06:45:18.447Z,18.08
2017-06-28T06:47:47.565Z,20.60
2017-06-28T06:50:19.501Z,19.98
2017-06-28T06:52:48.522Z,20.80
2017-06-28T06:55:17.584Z,22.98
2017-06-28T06:57:46.629Z,21.45
2017-06-28T07:00:17.294Z,22.35
2017-06-28T07:02:46.343Z,21.90
2017-06-28T07:05:15.317Z,23.65
2017-06-28T07:07:44.273Z,22.60
2017-06-28T07:10:13.298Z,24.25
2017-06-28T07:13:44.769Z,22.77
2017-06-28T07:16:13.809Z,21.27
2017-06-28T07:18:42.886Z,21.42
2017-06-28T07:21:11.909Z,21.42
2017-06-28T07:23:41.065Z,21.20
2017-06-28T07:26:10.299Z,20.67
2017-06-28T07:28:39.346Z,19.20
2017-06-28T07:31:08.416Z,19.25
2017-06-28T07:33:37.458Z,19.55
2017-06-28T07:38:44.904Z,18.55
2017-06-28T07:41:13.932Z,20.60
2017-06-28T07:43:43.010Z,20.02
2017-06-28T07:46:12.043Z,20.55
2017-06-28T07:48:41.019Z,21.02
2017-06-28T07:51:10.027Z,22.05
2017-06-28T07:53:39.041Z,21.17
2017-06-28T07:56:08.113Z,21.00
2017-06-28T07:58:37.126Z,20.62
2017-06-28T08:01:06.129Z,19.30
2017-06-28T08:03:35.266Z,20.12
2017-06-28T08:06:04.288Z,19.70
2017-06-28T08:08:33.300Z,18.75
2017-06-28T08:11:02.273Z,19.98
2017-06-28T08:13:31.323Z,17.48
2017-06-28T08:16:00.327Z,17.75
2017-06-28T08:18:30.300Z,18.37
2017-06-28T08:20:59.298Z,18.67
2017-06-28T08:23:28.356Z,16.90
2017-06-28T08:25:57.487Z,18.87
2017-06-28T08:28:26.567Z,17.62
2017-06-28T08:30:55.617Z,16.80
2017-06-28T08:33:25.000Z,16.60
2017-06-28T08:35:53.998Z,18.30
2017-06-28T08:38:22.980Z,18.33
2017-06-28T08:40:52.018Z,17.33
2017-06-28T08:43:21.044Z,18.70
2017-06-28T08:45:50.576Z,16.83
2017-06-28T08:48:19.558Z,17.48
2017-06-28T08:50:48.602Z,18.80
2017-06-28T08:53:17.629Z,19.45
2017-06-28T08:58:21.887Z,23.87
2017-06-28T09:00:50.877Z,26.67
2017-06-28T09:03:19.945Z,26.58
2017-06-28T09:05:48.947Z,24.48
2017-06-28T09:08:18.058Z,28.25
2017-06-28T09:10:47.112Z,29.45
2017-06-28T09:13:16.211Z,31.95
2017-06-28T09:15:45.230Z,30.92
2017-06-28T09:18:14.293Z,29.23
2017-06-28T09:20:43.678Z,32.15
2017-06-28T09:23:12.719Z,29.42
2017-06-28T09:25:41.729Z,28.48
2017-06-28T09:28:12.950Z,29.02
2017-06-28T09:30:41.963Z,27.83
2017-06-28T09:33:11.088Z,28.10
2017-06-28T09:35:40.120Z,26.48
2017-06-28T09:38:09.184Z,27.08
2017-06-28T09:40:38.274Z,25.30
2017-06-28T09:43:07.384Z,25.65
2017-06-28T09:45:37.021Z,27.67
2017-06-28T09:48:06.163Z,25.12
2017-06-28T09:50:35.385Z,22.92
2017-06-28T09:53:04.658Z,20.40
2017-06-28T09:55:33.759Z,22.48
2017-06-28T09:58:04.346Z,23.15
2017-06-28T10:00:35.375Z,26.58
2017-06-28T10:03:04.874Z,25.80
2017-06-28T10:05:34.110Z,27.95
2017-06-28T10:08:03.252Z,26.15
2017-06-28T10:10:32.401Z,27.35
2017-06-28T10:13:01.708Z,25.85
2017-06-28T10:15:30.927Z,28.00
2017-06-28T10:17:59.917Z,26.77
2017-06-28T10:20:28.973Z,29.37
2017-06-28T10:22:58.075Z,29.73
2017-06-28T10:25:27.080Z,27.50
2017-06-28T10:27:56.442Z,26.98
2017-06-28T10:30:25.589Z,29.05
2017-06-28T10:32:54.598Z,27.10
2017-06-28T10:35:23.620Z,21.85
2017-06-28T10:37:52.803Z,19.48
2017-06-28T10:40:21.983Z,16.95
2017-06-28T10:42:51.164Z,20.27
2017-06-28T10:45:20.127Z,19.20
2017-06-28T10:47:49.137Z,20.20
2017-06-28T10:50:18.383Z,17.10
2017-06-28T10:52:47.783Z,16.52
2017-06-28T10:55:17.153Z,17.50
2017-06-28T10:57:46.205Z,20.37
2017-06-28T11:00:15.772Z,18.08
2017-06-28T11:02:45.730Z,18.05
2017-06-28T11:05:15.152Z,17.00
2017-06-28T11:07:44.158Z,14.05
2017-06-28T11:10:13.186Z,13.95
2017-06-28T11:12:42.239Z,15.55
2017-06-28T11:15:11.284Z,17.70
2017-06-28T11:17:40.313Z,19.30
2017-06-28T11:20:09.426Z,21.65
2017-06-28T11:22:38.580Z,20.80
2017-06-28T11:25:07.684Z,20.23
2017-06-28T11:27:36.875Z,18.52
2017-06-28T11:30:05.841Z,14.75
2017-06-28T11:32:34.856Z,17.90
2017-06-28T11:35:03.985Z,14.75
2017-06-28T11:37:33.018Z,13.55
2017-06-28T11:40:02.078Z,10.98
2017-06-28T11:42:31.213Z,13.68
2017-06-28T11:45:00.250Z,15.35
2017-06-28T11:47:29.354Z,13.38
2017-06-28T11:49:58.414Z,15.20
2017-06-28T11:52:27.459Z,9.75
2017-06-28T11:55:02.091Z,9.70
2017-06-28T11:57:31.081Z,11.32
2017-06-28T12:00:00.160Z,15.30
2017-06-28T12:02:30.283Z,16.12
2017-06-28T12:04:59.492Z,12.93
2017-06-28T12:07:28.570Z,15.95
2017-06-28T12:10:01.595Z,11.75
2017-06-28T12:12:30.701Z,12.65
2017-06-28T12:14:59.829Z,12.23
2017-06-28T12:17:28.867Z,12.55
2017-06-28T12:19:57.981Z,9.93
2017-06-28T12:22:27.087Z,8.60
2017-06-28T12:24:56.132Z,8.77
2017-06-28T12:27:25.240Z,7.97
2017-06-28T12:29:54.498Z,9.02
2017-06-28T12:32:23.477Z,10.40
2017-06-28T12:34:52.555Z,11.65
2017-06-28T12:37:22.047Z,14.98
2017-06-28T12:39:51.070Z,11.80
2017-06-28T12:42:20.093Z,11.40
2017-06-28T12:44:49.245Z,13.60
2017-06-28T12:47:19.415Z,11.43
2017-06-28T12:49:50.061Z,12.75
2017-06-28T12:52:20.211Z,9.65
2017-06-28T12:54:50.364Z,9.50
2017-06-28T12:57:20.481Z,9.38
2017-06-28T12:59:50.459Z,7.55
2017-06-28T13:02:20.647Z,6.55
2017-06-28T13:04:51.204Z,8.00
2017-06-28T13:07:21.347Z,6.70
2017-06-28T13:09:51.383Z,7.10
2017-06-28T13:12:21.270Z,8.15
2017-06-28T13:14:55.885Z,6.25
2017-06-28T13:17:25.967Z,5.60
2017-06-28T13:19:56.193Z,4.35
2017-06-28T13:22:26.280Z,5.20
2017-06-28T13:24:56.374Z,5.20
2017-06-28T13:27:25.999Z,6.07
2017-06-28T13:29:56.429Z,5.22
2017-06-28T13:32:26.946Z,6.80
2017-06-28T13:34:57.055Z,4.62
2017-06-28T13:37:28.044Z,4.50
2017-06-28T13:39:58.213Z,4.57
2017-06-28T13:42:28.416Z,4.55
2017-06-28T13:44:58.556Z,5.43
2017-06-28T13:47:29.847Z,5.10
2017-06-28T13:49:59.996Z,4.12
2017-06-28T13:52:29.139Z,4.82
2017-06-28T13:54:58.178Z,4.57
2017-06-28T13:57:27.304Z,4.50
2017-06-28T13:59:56.315Z,4.35
2017-06-28T14:02:25.388Z,3.83
2017-06-28T14:04:54.563Z,5.15
2017-06-28T14:07:23.578Z,4.95
2017-06-28T14:09:59.704Z,4.40
2017-06-28T14:12:28.872Z,5.05
2017-06-28T14:14:57.937Z,4.97
2017-06-28T14:17:27.019Z,4.90
2017-06-28T14:19:56.071Z,6.30
2017-06-28T14:22:25.139Z,5.50
2017-06-28T14:24:58.628Z,5.62
2017-06-28T14:27:28.098Z,5.30
2017-06-28T14:29:57.156Z,6.22
2017-06-28T14:32:26.522Z,6.53
2017-06-28T14:34:55.619Z,5.95
2017-06-28T14:37:24.745Z,5.70
2017-06-28T14:39:53.859Z,5.72
2017-06-28T14:42:23.912Z,5.78
2017-06-28T14:44:52.944Z,6.03
2017-06-28T14:47:24.873Z,7.03
2017-06-28T14:49:53.929Z,7.35
2017-06-28T14:52:22.913Z,6.45
2017-06-28T14:54:51.977Z,6.65
2017-06-28T14:57:23.163Z,6.37
2017-06-28T14:59:52.292Z,6.50
2017-06-28T15:02:21.764Z,7.25
2017-06-28T15:04:50.907Z,6.10
2017-06-28T15:07:21.429Z,5.20
2017-06-28T15:09:50.545Z,5.07
2017-06-28T15:12:21.239Z,4.25
2017-06-28T15:14:51.503Z,4.57
2017-06-28T15:17:22.837Z,6.22
2017-06-28T15:19:51.892Z,4.50
2017-06-28T15:22:20.933Z,5.68
2017-06-28T15:24:50.060Z,4.97
2017-06-28T15:27:21.614Z,4.50
2017-06-28T15:29:50.705Z,5.30
2017-06-28T15:32:21.436Z,5.32
2017-06-28T15:34:50.579Z,4.82
2017-06-28T15:37:19.716Z,4.85
2017-06-28T15:39:49.002Z,4.70
2017-06-28T15:42:18.131Z,5.80
2017-06-28T15:44:47.262Z,5.30
2017-06-28T15:47:16.372Z,5.20
2017-06-28T15:49:45.781Z,4.93
2017-06-28T15:52:14.873Z,4.85
2017-06-28T15:54:47.890Z,4.72
2017-06-28T15:57:17.444Z,5.35
2017-06-28T15:59:46.688Z,5.45
2017-06-28T16:02:15.660Z,5.45
2017-06-28T16:04:44.671Z,5.43
2017-06-28T16:07:13.798Z,5.30
2017-06-28T16:09:42.872Z,5.93
2017-06-28T16:12:11.995Z,6.47
2017-06-28T16:14:41.066Z,6.00
2017-06-28T16:17:10.216Z,5.68
2017-06-28T16:19:40.250Z,5.62
2017-06-28T16:22:09.469Z,5.20
2017-06-28T16:24:39.466Z,5.20
2017-06-28T16:27:08.995Z,5.62
2017-06-28T16:29:38.439Z,6.07
2017-06-28T16:32:07.913Z,5.60
2017-06-28T16:34:36.951Z,6.22
2017-06-28T16:37:05.987Z,7.70
2017-06-28T16:39:49.627Z,6.22
2017-06-28T16:42:19.107Z,7.30
2017-06-28T16:44:48.125Z,6.62
2017-06-28T16:47:17.164Z,7.53
2017-06-28T16:49:46.262Z,8.30
2017-06-28T16:52:15.308Z,7.90
2017-06-28T16:54:44.375Z,7.87
2017-06-28T16:57:13.422Z,7.43
2017-06-28T16:59:42.402Z,7.10
2017-06-28T17:02:11.493Z,9.40
2017-06-28T17:04:40.639Z,5.57
2017-06-28T17:07:09.686Z,6.05
2017-06-28T17:09:38.737Z,6.90
2017-06-28T17:12:07.732Z,5.80
2017-06-28T17:14:36.790Z,6.40
2017-06-28T17:17:05.868Z,5.65
2017-06-28T17:19:34.874Z,5.73
2017-06-28T17:22:03.950Z,6.78
2017-06-28T17:24:32.972Z,6.45
2017-06-28T17:27:02.045Z,6.45
2017-06-28T17:29:31.125Z,5.35
2017-06-28T17:32:00.181Z,6.43
2017-06-28T17:37:07.395Z,6.53
2017-06-28T17:39:36.406Z,6.97
2017-06-28T17:42:05.513Z,7.90
2017-06-28T17:44:34.522Z,7.93
2017-06-28T17:47:03.550Z,6.90
2017-06-28T17:49:32.585Z,6.05
2017-06-28T17:52:01.646Z,6.53
2017-06-28T17:54:31.251Z,5.90
2017-06-28T17:57:00.463Z,6.03
2017-06-28T17:59:30.459Z,5.75
2017-06-28T18:02:01.772Z,5.55
2017-06-28T18:04:31.066Z,6.22
2017-06-28T18:07:00.265Z,6.43
2017-06-28T18:09:29.325Z,6.00
2017-06-28T18:11:58.461Z,6.25
2017-06-28T18:14:27.593Z,5.68
2017-06-28T18:16:58.544Z,5.60
2017-06-28T18:19:27.625Z,5.50
2017-06-28T18:21:56.769Z,5.10
2017-06-28T18:24:26.066Z,4.05
2017-06-28T18:26:55.341Z,4.30
2017-06-28T18:29:24.742Z,4.03
2017-06-28T18:31:53.776Z,3.87
2017-06-28T18:34:22.817Z,4.07
2017-06-28T18:36:51.873Z,3.50
2017-06-28T18:39:20.933Z,4.15
2017-06-28T18:41:50.082Z,3.92
2017-06-28T18:44:19.269Z,3.55
2017-06-28T18:46:48.470Z,4.15
2017-06-28T18:49:17.848Z,4.15
2017-06-28T18:51:47.047Z,4.35
2017-06-28T18:54:16.254Z,4.10
2017-06-28T18:56:45.461Z,4.32
2017-06-28T18:59:14.702Z,5.78
2017-06-28T19:01:43.821Z,4.57
2017-06-28T19:04:12.846Z,5.65
2017-06-28T19:06:41.848Z,5.00
2017-06-28T19:09:11.037Z,5.60
2017-06-28T19:11:40.292Z,6.93
2017-06-28T19:14:09.488Z,6.43
2017-06-28T19:16:38.592Z,7.82
2017-06-28T19:19:07.622Z,8.30
2017-06-28T19:21:36.704Z,8.38
2017-06-28T19:24:05.849Z,7.25
2017-06-28T19:27:55.180Z,6.72
2017-06-28T19:30:24.256Z,4.97
2017-06-28T19:32:53.307Z,5.80
2017-06-28T19:35:22.340Z,5.97
2017-06-28T19:37:51.465Z,6.55
2017-06-28T19:40:20.529Z,5.78
2017-06-28T19:42:49.607Z,6.93
2017-06-28T19:45:18.621Z,6.80
2017-06-28T19:47:47.652Z,6.07
2017-06-28T19:50:16.725Z,5.37
2017-06-28T19:52:45.731Z,5.53
2017-06-28T19:55:14.791Z,5.28
2017-06-28T19:57:43.773Z,7.70
2017-06-28T20:00:12.824Z,7.18
2017-06-28T20:02:41.911Z,6.68
2017-06-28T20:05:11.244Z,6.50
2017-06-28T20:07:40.305Z,7.47
2017-06-28T20:10:09.366Z,6.18
2017-06-28T20:12:38.342Z,7.30
2017-06-28T20:15:07.391Z,7.53
2017-06-28T20:17:36.401Z,8.10
2017-06-28T20:20:05.436Z,7.25
2017-06-28T20:22:34.429Z,6.72
2017-06-28T20:25:03.421Z,7.22
2017-06-28T20:27:32.453Z,7.03
2017-06-28T20:30:01.530Z,7.43
2017-06-28T20:32:30.541Z,8.18
2017-06-28T20:34:59.623Z,7.32
2017-06-28T20:37:28.669Z,8.02
2017-06-28T20:39:57.729Z,9.60
2017-06-28T20:42:26.714Z,7.95
2017-06-28T20:44:55.782Z,7.60
2017-06-28T20:47:24.837Z,8.43
2017-06-28T20:49:53.875Z,7.50
2017-06-28T20:52:22.877Z,8.80
2017-06-28T20:54:51.935Z,7.70
2017-06-28T20:57:21.343Z,9.48
2017-06-28T21:02:28.563Z,8.85
2017-06-28T21:04:57.663Z,8.55
2017-06-28T21:07:26.715Z,8.98
2017-06-28T21:09:55.779Z,8.95
2017-06-28T21:12:24.846Z,8.40
2017-06-28T21:14:53.949Z,8.35
2017-06-28T21:17:23.067Z,7.40
2017-06-28T21:19:52.523Z,7.37
2017-06-28T21:22:21.646Z,8.20
2017-06-28T21:26:10.016Z,8.23
2017-06-28T21:28:39.140Z,8.73
2017-06-28T21:31:08.168Z,8.60
2017-06-28T21:33:37.220Z,9.80
2017-06-28T21:36:06.235Z,8.57
2017-06-28T21:38:35.276Z,8.32
2017-06-28T21:41:04.378Z,8.50
2017-06-28T21:43:33.437Z,8.82
2017-06-28T21:46:02.474Z,8.52
2017-06-28T21:48:31.640Z,8.82
2017-06-28T21:53:38.921Z,9.68
2017-06-28T21:56:07.927Z,10.35
2017-06-28T21:58:36.886Z,9.88
2017-06-28T22:01:05.915Z,10.00
2017-06-28T22:03:34.985Z,8.55
2017-06-28T22:06:03.934Z,8.20
2017-06-28T22:08:32.907Z,9.15
2017-06-28T22:11:01.937Z,8.20
2017-06-28T22:13:30.909Z,8.63
2017-06-28T22:15:59.901Z,8.52
2017-06-28T22:18:37.686Z,9.82
2017-06-28T22:21:06.702Z,9.35
2017-06-28T22:27:33.020Z,9.27
2017-06-28T22:30:02.037Z,10.23
2017-06-28T22:32:31.089Z,10.13
2017-06-28T22:35:00.117Z,11.18
2017-06-28T22:37:29.134Z,10.35
2017-06-28T22:39:58.148Z,9.65
2017-06-28T22:42:27.179Z,10.32
2017-06-28T22:44:56.188Z,9.93
2017-06-28T22:47:25.141Z,10.88
2017-06-28T22:49:54.138Z,10.68
2017-06-28T22:52:23.094Z,11.73
2017-06-28T22:54:52.112Z,14.25
2017-06-28T22:57:21.140Z,14.00
2017-06-28T22:59:50.222Z,15.18
2017-06-28T23:02:19.249Z,15.73
2017-06-28T23:04:48.242Z,17.02
2017-06-28T23:07:17.303Z,15.95
2017-06-28T23:09:46.299Z,16.02
2017-06-28T23:12:15.337Z,15.68
2017-06-28T23:14:44.368Z,15.00
2017-06-28T23:17:13.336Z,17.08
2017-06-28T23:20:44.712Z,16.48
2017-06-28T23:23:13.668Z,13.98
2017-06-28T23:25:42.660Z,15.48
2017-06-28T23:28:11.713Z,18.87
2017-06-28T23:30:40.849Z,20.17
2017-06-28T23:33:09.846Z,19.40
2017-06-28T23:35:38.843Z,17.27
2017-06-28T23:38:07.793Z,18.33
2017-06-28T23:40:36.768Z,16.90
2017-06-28T23:43:05.768Z,15.15
2017-06-28T23:45:34.756Z,16.37
2017-06-28T23:48:03.757Z,18.05
2017-06-28T23:50:32.708Z,16.55
2017-06-28T23:53:01.842Z,15.57
2017-06-28T23:55:30.861Z,19.90
2017-06-28T23:57:59.871Z,17.17
